sensor_id;sensor_type;location;lat;lon;timestamp;pressure;altitude;pressure_sealevel;temperature;humidity
43436;BME280;36399;51.444;-2.018;2023-06-14T00:00:59;100823.69;;;14.42;100.00
43436;BME280;36399;51.444;-2.018;2023-06-14T00:03:24;100826.28;;;14.39;100.00
43436;BME280;36399;51.444;-2.018;2023-06-14T00:05:51;100829.78;;;14.38;100.00
43436;BME280;36399;51.444;-2.018;2023-06-14T00:08:17;100834.25;;;14.45;100.00
43436;BME280;36399;51.444;-2.018;2023-06-14T00:10:44;100840.38;;;14.38;100.00
43436;BME280;36399;51.444;-2.018;2023-06-14T00:13:10;100851.88;;;14.46;100.00
43436;BME280;36399;51.444;-2.018;2023-06-14T00:15:37;100851.78;;;14.33;100.00
43436;BME280;36399;51.444;-2.018;2023-06-14T00:18:04;100859.72;;;14.37;100.00
43436;BME280;36399;51.444;-2.018;2023-06-14T00:20:32;100858.84;;;14.38;100.00
43436;BME280;36399;51.444;-2.018;2023-06-14T00:22:59;100873.69;;;14.09;100.00
43436;BME280;36399;51.444;-2.018;2023-06-14T00:25:26;100882.31;;;13.80;100.00
43436;BME280;36399;51.444;-2.018;2023-06-14T00:27:52;100893.53;;;13.52;100.00
43436;BME280;36399;51.444;-2.018;2023-06-14T00:30:19;100900.47;;;13.39;100.00
43436;BME280;36399;51.444;-2.018;2023-06-14T00:32:45;100910.78;;;13.15;100.00
43436;BME280;36399;51.444;-2.018;2023-06-14T00:35:12;100920.22;;;12.98;100.00
43436;BME280;36399;51.444;-2.018;2023-06-14T00:37:38;100927.13;;;12.85;100.00
43436;BME280;36399;51.444;-2.018;2023-06-14T00:40:04;100938.66;;;12.94;100.00
43436;BME280;36399;51.444;-2.018;2023-06-14T00:42:31;100948.22;;;12.85;100.00
43436;BME280;36399;51.444;-2.018;2023-06-14T00:44:57;100966.59;;;12.80;100.00
43436;BME280;36399;51.444;-2.018;2023-06-14T00:47:23;100961.31;;;12.79;100.00
43436;BME280;36399;51.444;-2.018;2023-06-14T00:49:53;100959.63;;;12.84;100.00
43436;BME280;36399;51.444;-2.018;2023-06-14T00:52:22;100974.53;;;12.82;100.00
43436;BME280;36399;51.444;-2.018;2023-06-14T00:54:49;100971.13;;;12.92;100.00
43436;BME280;36399;51.444;-2.018;2023-06-14T00:57:16;100970.47;;;13.10;100.00
43436;BME280;36399;51.444;-2.018;2023-06-14T00:59:46;100968.53;;;12.96;100.00
43436;BME280;36399;51.444;-2.018;2023-06-14T01:02:13;100969.28;;;12.85;100.00
43436;BME280;36399;51.444;-2.018;2023-06-14T01:04:46;100977.06;;;12.73;100.00
43436;BME280;36399;51.444;-2.018;2023-06-14T01:07:36;100972.50;;;12.59;100.00
43436;BME280;36399;51.444;-2.018;2023-06-14T01:12:56;100979.31;;;12.45;100.00
43436;BME280;36399;51.444;-2.018;2023-06-14T01:15:24;100979.22;;;12.39;100.00
43436;BME280;36399;51.444;-2.018;2023-06-14T01:17:50;100988.88;;;12.37;100.00
43436;BME280;36399;51.444;-2.018;2023-06-14T01:20:21;100988.81;;;12.34;100.00
43436;BME280;36399;51.444;-2.018;2023-06-14T01:22:54;100982.94;;;12.50;100.00
43436;BME280;36399;51.444;-2.018;2023-06-14T01:25:20;100978.44;;;12.45;100.00
43436;BME280;36399;51.444;-2.018;2023-06-14T01:28:03;101000.22;;;12.33;100.00
43436;BME280;36399;51.444;-2.018;2023-06-14T01:30:30;100998.19;;;12.14;100.00
43436;BME280;36399;51.444;-2.018;2023-06-14T01:32:59;101012.81;;;11.96;100.00
43436;BME280;36399;51.444;-2.018;2023-06-14T01:35:25;101011.69;;;11.81;100.00
43436;BME280;36399;51.444;-2.018;2023-06-14T01:37:52;101019.31;;;11.67;100.00
43436;BME280;36399;51.444;-2.018;2023-06-14T01:40:19;101028.88;;;11.62;100.00
43436;BME280;36399;51.444;-2.018;2023-06-14T01:42:47;101041.22;;;11.66;100.00
43436;BME280;36399;51.444;-2.018;2023-06-14T01:45:15;101042.88;;;11.61;100.00
43436;BME280;36399;51.444;-2.018;2023-06-14T01:47:41;101043.53;;;11.49;100.00
43436;BME280;36399;51.444;-2.018;2023-06-14T01:50:08;101060.88;;;11.39;100.00
43436;BME280;36399;51.444;-2.018;2023-06-14T01:52:33;101068.63;;;11.33;100.00
43436;BME280;36399;51.444;-2.018;2023-06-14T01:54:59;101075.66;;;11.34;100.00
43436;BME280;36399;51.444;-2.018;2023-06-14T01:57:28;101073.00;;;11.33;100.00
43436;BME280;36399;51.444;-2.018;2023-06-14T01:59:55;101071.09;;;11.24;100.00
43436;BME280;36399;51.444;-2.018;2023-06-14T02:02:21;101065.75;;;11.20;100.00
43436;BME280;36399;51.444;-2.018;2023-06-14T02:04:47;101068.59;;;11.32;100.00
43436;BME280;36399;51.444;-2.018;2023-06-14T02:07:13;101068.66;;;11.35;100.00
43436;BME280;36399;51.444;-2.018;2023-06-14T02:09:40;101060.63;;;11.27;100.00
43436;BME280;36399;51.444;-2.018;2023-06-14T02:12:07;101070.22;;;11.25;100.00
43436;BME280;36399;51.444;-2.018;2023-06-14T02:14:33;101065.09;;;11.31;100.00
43436;BME280;36399;51.444;-2.018;2023-06-14T02:16:59;101071.78;;;11.16;100.00
43436;BME280;36399;51.444;-2.018;2023-06-14T02:19:26;101060.22;;;11.06;100.00
43436;BME280;36399;51.444;-2.018;2023-06-14T02:21:52;101057.06;;;11.24;100.00
43436;BME280;36399;51.444;-2.018;2023-06-14T02:24:18;101025.81;;;11.41;100.00
43436;BME280;36399;51.444;-2.018;2023-06-14T02:26:44;101016.31;;;11.46;100.00
43436;BME280;36399;51.444;-2.018;2023-06-14T02:29:10;101003.31;;;11.53;100.00
43436;BME280;36399;51.444;-2.018;2023-06-14T02:31:38;100997.81;;;11.43;100.00
43436;BME280;36399;51.444;-2.018;2023-06-14T02:34:04;100993.25;;;11.32;100.00
43436;BME280;36399;51.444;-2.018;2023-06-14T02:36:30;100990.03;;;11.46;100.00
43436;BME280;36399;51.444;-2.018;2023-06-14T02:38:57;100985.38;;;11.32;100.00
43436;BME280;36399;51.444;-2.018;2023-06-14T02:41:26;100976.75;;;11.39;100.00
43436;BME280;36399;51.444;-2.018;2023-06-14T02:43:55;100982.63;;;11.26;100.00
43436;BME280;36399;51.444;-2.018;2023-06-14T02:46:21;100981.59;;;11.17;100.00
43436;BME280;36399;51.444;-2.018;2023-06-14T02:48:47;100986.72;;;11.11;100.00
43436;BME280;36399;51.444;-2.018;2023-06-14T02:51:13;100991.50;;;10.86;100.00
43436;BME280;36399;51.444;-2.018;2023-06-14T02:53:39;101000.59;;;10.61;100.00
43436;BME280;36399;51.444;-2.018;2023-06-14T02:56:06;101001.47;;;10.60;100.00
43436;BME280;36399;51.444;-2.018;2023-06-14T02:58:32;101003.00;;;10.51;100.00
43436;BME280;36399;51.444;-2.018;2023-06-14T03:00:58;101000.28;;;10.46;100.00
43436;BME280;36399;51.444;-2.018;2023-06-14T03:03:29;100990.47;;;10.39;100.00
43436;BME280;36399;51.444;-2.018;2023-06-14T03:05:55;100989.56;;;10.37;100.00
43436;BME280;36399;51.444;-2.018;2023-06-14T03:08:22;100983.19;;;10.26;100.00
43436;BME280;36399;51.444;-2.018;2023-06-14T03:10:53;100985.53;;;10.15;100.00
43436;BME280;36399;51.444;-2.018;2023-06-14T03:13:19;100984.53;;;10.08;100.00
43436;BME280;36399;51.444;-2.018;2023-06-14T03:15:48;100979.84;;;9.95;100.00
43436;BME280;36399;51.444;-2.018;2023-06-14T03:18:18;100971.63;;;9.81;100.00
43436;BME280;36399;51.444;-2.018;2023-06-14T03:20:44;100972.06;;;9.64;100.00
43436;BME280;36399;51.444;-2.018;2023-06-14T03:23:12;100969.66;;;9.73;100.00
43436;BME280;36399;51.444;-2.018;2023-06-14T03:25:38;100960.63;;;9.60;100.00
43436;BME280;36399;51.444;-2.018;2023-06-14T03:28:06;100963.00;;;9.49;100.00
43436;BME280;36399;51.444;-2.018;2023-06-14T03:30:32;100970.06;;;9.54;100.00
43436;BME280;36399;51.444;-2.018;2023-06-14T03:32:58;100970.06;;;9.54;100.00
43436;BME280;36399;51.444;-2.018;2023-06-14T03:35:27;100971.16;;;9.62;100.00
43436;BME280;36399;51.444;-2.018;2023-06-14T03:37:53;100964.75;;;9.51;100.00
43436;BME280;36399;51.444;-2.018;2023-06-14T03:40:20;100970.94;;;9.53;100.00
43436;BME280;36399;51.444;-2.018;2023-06-14T03:42:47;100985.72;;;9.51;100.00
43436;BME280;36399;51.444;-2.018;2023-06-14T03:45:13;100981.94;;;9.39;100.00
43436;BME280;36399;51.444;-2.018;2023-06-14T03:47:38;100994.63;;;9.24;100.00
43436;BME280;36399;51.444;-2.018;2023-06-14T03:50:05;100999.47;;;9.09;100.00
43436;BME280;36399;51.444;-2.018;2023-06-14T03:52:31;101008.75;;;8.98;100.00
43436;BME280;36399;51.444;-2.018;2023-06-14T03:54:58;101027.75;;;8.91;100.00
43436;BME280;36399;51.444;-2.018;2023-06-14T03:57:26;101023.91;;;8.79;100.00
43436;BME280;36399;51.444;-2.018;2023-06-14T03:59:52;101029.53;;;8.92;100.00
43436;BME280;36399;51.444;-2.018;2023-06-14T04:02:18;101038.50;;;9.00;100.00
43436;BME280;36399;51.444;-2.018;2023-06-14T04:04:44;101046.09;;;8.91;100.00
43436;BME280;36399;51.444;-2.018;2023-06-14T04:07:11;101048.88;;;8.97;100.00
43436;BME280;36399;51.444;-2.018;2023-06-14T04:09:39;101066.44;;;9.01;100.00
43436;BME280;36399;51.444;-2.018;2023-06-14T04:12:05;101074.34;;;9.02;100.00
43436;BME280;36399;51.444;-2.018;2023-06-14T04:14:31;101064.69;;;9.00;100.00
43436;BME280;36399;51.444;-2.018;2023-06-14T04:17:00;101077.34;;;9.16;100.00
43436;BME280;36399;51.444;-2.018;2023-06-14T04:19:26;101079.03;;;9.14;100.00
43436;BME280;36399;51.444;-2.018;2023-06-14T04:21:52;101083.31;;;9.10;100.00
43436;BME280;36399;51.444;-2.018;2023-06-14T04:24:18;101085.63;;;9.00;100.00
43436;BME280;36399;51.444;-2.018;2023-06-14T04:26:45;101089.09;;;8.99;100.00
43436;BME280;36399;51.444;-2.018;2023-06-14T04:29:14;101092.69;;;9.02;100.00
43436;BME280;36399;51.444;-2.018;2023-06-14T04:31:42;101101.59;;;9.09;100.00
43436;BME280;36399;51.444;-2.018;2023-06-14T04:34:08;101107.47;;;9.00;100.00
43436;BME280;36399;51.444;-2.018;2023-06-14T04:36:35;101104.88;;;9.02;100.00
43436;BME280;36399;51.444;-2.018;2023-06-14T04:39:04;101117.22;;;9.06;100.00
43436;BME280;36399;51.444;-2.018;2023-06-14T04:41:30;101111.91;;;9.03;100.00
43436;BME280;36399;51.444;-2.018;2023-06-14T04:43:58;101119.09;;;9.10;100.00
43436;BME280;36399;51.444;-2.018;2023-06-14T04:46:28;101127.69;;;9.06;100.00
43436;BME280;36399;51.444;-2.018;2023-06-14T04:48:54;101116.97;;;8.97;100.00
43436;BME280;36399;51.444;-2.018;2023-06-14T04:51:20;101127.34;;;8.94;100.00
43436;BME280;36399;51.444;-2.018;2023-06-14T04:53:48;101132.41;;;8.88;100.00
43436;BME280;36399;51.444;-2.018;2023-06-14T04:56:15;101137.91;;;8.97;100.00
43436;BME280;36399;51.444;-2.018;2023-06-14T04:58:42;101150.34;;;9.04;100.00
43436;BME280;36399;51.444;-2.018;2023-06-14T05:01:09;101153.09;;;9.08;100.00
43436;BME280;36399;51.444;-2.018;2023-06-14T05:03:35;101150.44;;;9.07;100.00
43436;BME280;36399;51.444;-2.018;2023-06-14T05:06:01;101145.47;;;9.16;100.00
43436;BME280;36399;51.444;-2.018;2023-06-14T05:08:27;101148.31;;;9.24;100.00
43436;BME280;36399;51.444;-2.018;2023-06-14T05:10:53;101147.28;;;9.18;100.00
43436;BME280;36399;51.444;-2.018;2023-06-14T05:13:19;101145.81;;;9.28;100.00
43436;BME280;36399;51.444;-2.018;2023-06-14T05:15:45;101151.13;;;9.31;100.00
43436;BME280;36399;51.444;-2.018;2023-06-14T05:18:11;101157.53;;;9.39;100.00
43436;BME280;36399;51.444;-2.018;2023-06-14T05:20:39;101154.22;;;9.46;100.00
43436;BME280;36399;51.444;-2.018;2023-06-14T05:23:05;101150.88;;;9.52;100.00
43436;BME280;36399;51.444;-2.018;2023-06-14T05:25:31;101156.25;;;9.57;100.00
43436;BME280;36399;51.444;-2.018;2023-06-14T05:27:57;101159.03;;;9.63;100.00
43436;BME280;36399;51.444;-2.018;2023-06-14T05:30:23;101151.25;;;9.66;100.00
43436;BME280;36399;51.444;-2.018;2023-06-14T05:32:49;101152.34;;;9.74;100.00
43436;BME280;36399;51.444;-2.018;2023-06-14T05:35:16;101159.63;;;9.84;100.00
43436;BME280;36399;51.444;-2.018;2023-06-14T05:37:42;101152.25;;;10.02;100.00
43436;BME280;36399;51.444;-2.018;2023-06-14T05:40:08;101149.72;;;10.05;100.00
43436;BME280;36399;51.444;-2.018;2023-06-14T05:42:34;101151.91;;;10.22;100.00
43436;BME280;36399;51.444;-2.018;2023-06-14T05:45:00;101139.84;;;10.30;100.00
43436;BME280;36399;51.444;-2.018;2023-06-14T05:47:26;101140.34;;;10.48;100.00
43436;BME280;36399;51.444;-2.018;2023-06-14T05:49:53;101133.59;;;10.59;100.00
43436;BME280;36399;51.444;-2.018;2023-06-14T05:52:20;101133.06;;;10.74;100.00
43436;BME280;36399;51.444;-2.018;2023-06-14T05:54:47;101128.69;;;10.74;100.00
43436;BME280;36399;51.444;-2.018;2023-06-14T05:57:13;101132.56;;;10.92;100.00
43436;BME280;36399;51.444;-2.018;2023-06-14T05:59:39;101133.69;;;11.01;100.00
43436;BME280;36399;51.444;-2.018;2023-06-14T06:02:05;101128.59;;;11.09;100.00
43436;BME280;36399;51.444;-2.018;2023-06-14T06:04:31;101117.28;;;11.13;100.00
43436;BME280;36399;51.444;-2.018;2023-06-14T06:06:58;101127.22;;;11.28;100.00
43436;BME280;36399;51.444;-2.018;2023-06-14T06:09:23;101127.59;;;11.45;100.00
43436;BME280;36399;51.444;-2.018;2023-06-14T06:11:49;101125.03;;;11.48;100.00
43436;BME280;36399;51.444;-2.018;2023-06-14T06:14:15;101133.16;;;11.61;100.00
43436;BME280;36399;51.444;-2.018;2023-06-14T06:16:42;101118.38;;;11.68;100.00
43436;BME280;36399;51.444;-2.018;2023-06-14T06:19:07;101122.03;;;11.75;100.00
43436;BME280;36399;51.444;-2.018;2023-06-14T06:21:33;101104.75;;;11.87;100.00
43436;BME280;36399;51.444;-2.018;2023-06-14T06:23:59;101107.63;;;12.01;100.00
43436;BME280;36399;51.444;-2.018;2023-06-14T06:26:29;101115.75;;;12.15;100.00
43436;BME280;36399;51.444;-2.018;2023-06-14T06:28:55;101110.69;;;12.27;100.00
43436;BME280;36399;51.444;-2.018;2023-06-14T06:31:22;101096.91;;;12.43;100.00
43436;BME280;36399;51.444;-2.018;2023-06-14T06:33:49;101097.84;;;12.48;100.00
43436;BME280;36399;51.444;-2.018;2023-06-14T06:36:16;101087.44;;;12.53;100.00
43436;BME280;36399;51.444;-2.018;2023-06-14T06:38:42;101101.72;;;12.70;100.00
43436;BME280;36399;51.444;-2.018;2023-06-14T06:41:07;101092.22;;;12.83;100.00
43436;BME280;36399;51.444;-2.018;2023-06-14T06:43:33;101093.13;;;12.85;100.00
43436;BME280;36399;51.444;-2.018;2023-06-14T06:45:59;101093.19;;;12.89;100.00
43436;BME280;36399;51.444;-2.018;2023-06-14T06:48:25;101088.94;;;12.99;100.00
43436;BME280;36399;51.444;-2.018;2023-06-14T06:50:51;101088.97;;;13.01;100.00
43436;BME280;36399;51.444;-2.018;2023-06-14T06:53:17;101082.09;;;13.13;100.00
43436;BME280;36399;51.444;-2.018;2023-06-14T06:55:44;101083.97;;;13.19;100.00
43436;BME280;36399;51.444;-2.018;2023-06-14T06:58:10;101085.75;;;13.21;100.00
43436;BME280;36399;51.444;-2.018;2023-06-14T07:00:36;101081.50;;;13.36;100.00
43436;BME280;36399;51.444;-2.018;2023-06-14T07:03:02;101079.00;;;13.48;100.00
43436;BME280;36399;51.444;-2.018;2023-06-14T07:05:29;101075.50;;;13.49;100.00
43436;BME280;36399;51.444;-2.018;2023-06-14T07:07:55;101077.41;;;13.62;100.00
43436;BME280;36399;51.444;-2.018;2023-06-14T07:10:21;101066.91;;;13.65;100.00
43436;BME280;36399;51.444;-2.018;2023-06-14T07:12:48;101065.28;;;13.79;100.00
43436;BME280;36399;51.444;-2.018;2023-06-14T07:15:14;101057.44;;;13.88;100.00
43436;BME280;36399;51.444;-2.018;2023-06-14T07:17:40;101049.63;;;14.01;100.00
43436;BME280;36399;51.444;-2.018;2023-06-14T07:20:06;101050.59;;;14.09;100.00
43436;BME280;36399;51.444;-2.018;2023-06-14T07:22:39;101040.97;;;14.17;100.00
43436;BME280;36399;51.444;-2.018;2023-06-14T07:25:10;101039.28;;;14.27;100.00
43436;BME280;36399;51.444;-2.018;2023-06-14T07:27:43;101041.13;;;14.40;100.00
43436;BME280;36399;51.444;-2.018;2023-06-14T07:30:09;101042.97;;;14.48;100.00
43436;BME280;36399;51.444;-2.018;2023-06-14T07:32:36;101041.34;;;14.67;100.00
43436;BME280;36399;51.444;-2.018;2023-06-14T07:35:02;101041.38;;;14.75;100.00
43436;BME280;36399;51.444;-2.018;2023-06-14T07:37:29;101043.16;;;14.79;100.00
43436;BME280;36399;51.444;-2.018;2023-06-14T07:39:55;101025.56;;;14.92;100.00
43436;BME280;36399;51.444;-2.018;2023-06-14T07:42:21;101037.06;;;15.01;100.00
43436;BME280;36399;51.444;-2.018;2023-06-14T07:44:46;101019.44;;;15.05;100.00
43436;BME280;36399;51.444;-2.018;2023-06-14T07:47:12;101005.41;;;15.18;100.00
43436;BME280;36399;51.444;-2.018;2023-06-14T07:49:39;100997.47;;;15.18;100.00
43436;BME280;36399;51.444;-2.018;2023-06-14T07:52:05;100997.47;;;15.20;100.00
43436;BME280;36399;51.444;-2.018;2023-06-14T07:54:31;100991.34;;;15.39;100.00
43436;BME280;36399;51.444;-2.018;2023-06-14T07:56:58;100979.88;;;15.52;100.00
43436;BME280;36399;51.444;-2.018;2023-06-14T07:59:26;100989.66;;;15.67;100.00
43436;BME280;36399;51.444;-2.018;2023-06-14T08:01:52;100976.41;;;15.81;100.00
43436;BME280;36399;51.444;-2.018;2023-06-14T08:04:18;100975.53;;;15.92;100.00
43436;BME280;36399;51.444;-2.018;2023-06-14T08:06:44;100971.06;;;16.11;100.00
43436;BME280;36399;51.444;-2.018;2023-06-14T08:09:12;100971.09;;;16.20;100.00
43436;BME280;36399;51.444;-2.018;2023-06-14T08:11:38;100966.63;;;16.34;100.00
43436;BME280;36399;51.444;-2.018;2023-06-14T08:14:04;100956.03;;;16.37;100.00
43436;BME280;36399;51.444;-2.018;2023-06-14T08:16:30;100963.88;;;16.59;100.00
43436;BME280;36399;51.444;-2.018;2023-06-14T08:18:56;100932.97;;;16.55;100.00
43436;BME280;36399;51.444;-2.018;2023-06-14T08:21:22;100928.53;;;16.60;100.00
43436;BME280;36399;51.444;-2.018;2023-06-14T08:23:47;100943.59;;;16.65;100.00
43436;BME280;36399;51.444;-2.018;2023-06-14T08:26:14;100928.50;;;16.81;100.00
43436;BME280;36399;51.444;-2.018;2023-06-14T08:28:40;100941.69;;;16.93;100.00
43436;BME280;36399;51.444;-2.018;2023-06-14T08:31:08;100940.00;;;16.77;100.00
43436;BME280;36399;51.444;-2.018;2023-06-14T08:33:34;100941.72;;;16.87;100.00
43436;BME280;36399;51.444;-2.018;2023-06-14T08:36:00;100936.38;;;16.96;100.00
43436;BME280;36399;51.444;-2.018;2023-06-14T08:38:26;100926.66;;;16.94;100.00
43436;BME280;36399;51.444;-2.018;2023-06-14T08:40:52;100922.09;;;17.14;100.00
43436;BME280;36399;51.444;-2.018;2023-06-14T08:43:22;100913.25;;;17.20;100.00
43436;BME280;36399;51.444;-2.018;2023-06-14T08:45:48;100922.91;;;17.30;100.00
43436;BME280;36399;51.444;-2.018;2023-06-14T08:48:17;100926.28;;;17.50;100.00
43436;BME280;36399;51.444;-2.018;2023-06-14T08:50:46;100919.31;;;17.37;100.00
43436;BME280;36399;51.444;-2.018;2023-06-14T08:53:14;100925.34;;;17.56;100.00
43436;BME280;36399;51.444;-2.018;2023-06-14T08:55:46;100923.53;;;17.61;100.00
43436;BME280;36399;51.444;-2.018;2023-06-14T08:58:13;100912.84;;;17.75;100.00
43436;BME280;36399;51.444;-2.018;2023-06-14T09:00:43;100912.56;;;18.02;100.00
43436;BME280;36399;51.444;-2.018;2023-06-14T09:03:10;100895.78;;;17.97;100.00
43436;BME280;36399;51.444;-2.018;2023-06-14T09:05:39;100905.41;;;18.07;100.00
43436;BME280;36399;51.444;-2.018;2023-06-14T09:08:05;100885.75;;;18.25;100.00
43436;BME280;36399;51.444;-2.018;2023-06-14T09:10:32;100879.34;;;18.41;100.00
43436;BME280;36399;51.444;-2.018;2023-06-14T09:13:03;100882.63;;;18.60;100.00
43436;BME280;36399;51.444;-2.018;2023-06-14T09:15:30;100874.38;;;18.83;100.00
43436;BME280;36399;51.444;-2.018;2023-06-14T09:17:56;100883.81;;;19.04;100.00
43436;BME280;36399;51.444;-2.018;2023-06-14T09:20:24;100868.88;;;18.95;100.00
43436;BME280;36399;51.444;-2.018;2023-06-14T09:22:50;100878.78;;;18.85;100.00
43436;BME280;36399;51.444;-2.018;2023-06-14T09:25:16;100870.66;;;18.95;100.00
43436;BME280;36399;51.444;-2.018;2023-06-14T09:27:42;100870.47;;;19.07;100.00
43436;BME280;36399;51.444;-2.018;2023-06-14T09:30:11;100868.34;;;19.30;100.00
43436;BME280;36399;51.444;-2.018;2023-06-14T09:32:38;100861.94;;;19.40;100.00
43436;BME280;36399;51.444;-2.018;2023-06-14T09:35:09;100860.97;;;19.46;100.00
43436;BME280;36399;51.444;-2.018;2023-06-14T09:37:35;100860.03;;;19.48;100.00
43436;BME280;36399;51.444;-2.018;2023-06-14T09:40:04;100863.25;;;19.69;100.00
43436;BME280;36399;51.444;-2.018;2023-06-14T09:42:30;100857.88;;;19.70;100.00
43436;BME280;36399;51.444;-2.018;2023-06-14T09:44:57;100861.22;;;19.83;100.00
43436;BME280;36399;51.444;-2.018;2023-06-14T09:47:23;100850.97;;;20.08;100.00
43436;BME280;36399;51.444;-2.018;2023-06-14T09:49:50;100849.63;;;20.29;100.00
43436;BME280;36399;51.444;-2.018;2023-06-14T09:52:18;100838.72;;;20.44;100.00
43436;BME280;36399;51.444;-2.018;2023-06-14T09:54:46;100840.88;;;21.04;100.00
43436;BME280;36399;51.444;-2.018;2023-06-14T09:57:19;100833.59;;;21.80;100.00
43436;BME280;36399;51.444;-2.018;2023-06-14T09:59:47;100825.88;;;22.33;100.00
43436;BME280;36399;51.444;-2.018;2023-06-14T10:02:28;100824.94;;;23.74;100.00
43436;BME280;36399;51.444;-2.018;2023-06-14T10:05:08;100824.78;;;23.78;100.00
43436;BME280;36399;51.444;-2.018;2023-06-14T10:07:42;100818.03;;;24.63;100.00
43436;BME280;36399;51.444;-2.018;2023-06-14T10:10:10;100823.41;;;24.85;100.00
43436;BME280;36399;51.444;-2.018;2023-06-14T10:12:37;100819.63;;;25.76;100.00
43436;BME280;36399;51.444;-2.018;2023-06-14T10:15:04;100820.16;;;24.77;100.00
43436;BME280;36399;51.444;-2.018;2023-06-14T10:17:48;100819.16;;;25.45;97.88
43436;BME280;36399;51.444;-2.018;2023-06-14T10:23:19;100820.00;;;24.11;100.00
43436;BME280;36399;51.444;-2.018;2023-06-14T10:25:50;100806.78;;;24.53;100.00
43436;BME280;36399;51.444;-2.018;2023-06-14T10:28:20;100814.09;;;24.72;100.00
43436;BME280;36399;51.444;-2.018;2023-06-14T10:31:06;100809.34;;;26.44;92.22
43436;BME280;36399;51.444;-2.018;2023-06-14T10:33:32;100803.91;;;26.46;76.60
43436;BME280;36399;51.444;-2.018;2023-06-14T10:38:43;100814.09;;;26.77;72.03
43436;BME280;36399;51.444;-2.018;2023-06-14T10:41:09;100803.00;;;27.01;68.11
43436;BME280;36399;51.444;-2.018;2023-06-14T10:43:35;100802.34;;;27.32;65.89
43436;BME280;36399;51.444;-2.018;2023-06-14T10:46:20;100799.94;;;26.15;74.19
43436;BME280;36399;51.444;-2.018;2023-06-14T10:48:49;100797.47;;;25.90;74.69
43436;BME280;36399;51.444;-2.018;2023-06-14T10:51:22;100799.69;;;25.81;73.47
43436;BME280;36399;51.444;-2.018;2023-06-14T10:53:51;100798.56;;;25.24;74.27
43436;BME280;36399;51.444;-2.018;2023-06-14T10:58:51;100793.75;;;26.32;75.64
43436;BME280;36399;51.444;-2.018;2023-06-14T11:01:31;100790.78;;;26.76;72.93
43436;BME280;36399;51.444;-2.018;2023-06-14T11:04:07;100784.13;;;26.65;66.77
43436;BME280;36399;51.444;-2.018;2023-06-14T11:06:45;100786.63;;;26.87;62.84
43436;BME280;36399;51.444;-2.018;2023-06-14T11:11:42;100782.84;;;27.10;68.81
43436;BME280;36399;51.444;-2.018;2023-06-14T11:14:09;100774.53;;;26.60;72.45
43436;BME280;36399;51.444;-2.018;2023-06-14T11:16:36;100779.72;;;26.82;67.63
43436;BME280;36399;51.444;-2.018;2023-06-14T11:19:02;100772.06;;;28.12;58.06
43436;BME280;36399;51.444;-2.018;2023-06-14T11:21:34;100784.50;;;27.47;60.28
43436;BME280;36399;51.444;-2.018;2023-06-14T11:24:00;100772.22;;;27.24;59.49
43436;BME280;36399;51.444;-2.018;2023-06-14T11:26:26;100771.50;;;27.21;61.96
43436;BME280;36399;51.444;-2.018;2023-06-14T11:28:57;100766.19;;;28.37;57.83
43436;BME280;36399;51.444;-2.018;2023-06-14T11:31:24;100770.94;;;27.83;65.40
43436;BME280;36399;51.444;-2.018;2023-06-14T11:33:50;100764.84;;;27.80;59.93
43436;BME280;36399;51.444;-2.018;2023-06-14T11:36:16;100759.34;;;28.14;62.74
43436;BME280;36399;51.444;-2.018;2023-06-14T11:38:42;100761.31;;;27.62;65.93
43436;BME280;36399;51.444;-2.018;2023-06-14T11:41:09;100758.88;;;28.55;64.00
43436;BME280;36399;51.444;-2.018;2023-06-14T11:43:35;100760.63;;;28.24;66.54
43436;BME280;36399;51.444;-2.018;2023-06-14T11:46:02;100744.44;;;28.07;66.04
43436;BME280;36399;51.444;-2.018;2023-06-14T11:48:41;100752.16;;;28.46;64.43
43436;BME280;36399;51.444;-2.018;2023-06-14T11:51:07;100749.13;;;28.04;67.44
43436;BME280;36399;51.444;-2.018;2023-06-14T11:53:33;100755.56;;;28.50;63.71
43436;BME280;36399;51.444;-2.018;2023-06-14T11:56:03;100747.28;;;28.04;69.01
43436;BME280;36399;51.444;-2.018;2023-06-14T11:58:29;100754.97;;;27.63;68.84
43436;BME280;36399;51.444;-2.018;2023-06-14T12:00:55;100756.97;;;28.41;67.07
43436;BME280;36399;51.444;-2.018;2023-06-14T12:03:25;100746.34;;;28.54;63.45
43436;BME280;36399;51.444;-2.018;2023-06-14T12:06:05;100754.88;;;28.94;65.19
43436;BME280;36399;51.444;-2.018;2023-06-14T12:08:36;100746.63;;;29.85;58.43
43436;BME280;36399;51.444;-2.018;2023-06-14T12:11:06;100745.00;;;30.11;56.75
43436;BME280;36399;51.444;-2.018;2023-06-14T12:13:34;100741.63;;;30.22;54.54
43436;BME280;36399;51.444;-2.018;2023-06-14T12:16:01;100743.59;;;30.61;53.66
43436;BME280;36399;51.444;-2.018;2023-06-14T12:18:38;100747.72;;;31.60;51.32
43436;BME280;36399;51.444;-2.018;2023-06-14T12:21:05;100736.56;;;32.28;48.04
43436;BME280;36399;51.444;-2.018;2023-06-14T12:23:42;100735.78;;;32.62;45.32
43436;BME280;36399;51.444;-2.018;2023-06-14T12:26:08;100736.34;;;32.91;44.08
43436;BME280;36399;51.444;-2.018;2023-06-14T12:28:35;100733.44;;;33.06;45.19
43436;BME280;36399;51.444;-2.018;2023-06-14T12:31:01;100742.19;;;32.98;43.00
43436;BME280;36399;51.444;-2.018;2023-06-14T12:33:27;100737.84;;;32.35;45.24
43436;BME280;36399;51.444;-2.018;2023-06-14T12:35:55;100735.72;;;32.75;44.41
43436;BME280;36399;51.444;-2.018;2023-06-14T12:38:23;100735.31;;;32.19;44.35
43436;BME280;36399;51.444;-2.018;2023-06-14T12:40:49;100730.00;;;32.18;46.35
43436;BME280;36399;51.444;-2.018;2023-06-14T12:43:15;100726.53;;;31.39;47.64
43436;BME280;36399;51.444;-2.018;2023-06-14T12:45:41;100730.38;;;32.50;46.78
43436;BME280;36399;51.444;-2.018;2023-06-14T12:48:07;100724.09;;;33.56;44.26